FW2168 Weather Reports


Display with metric or nautical units.
time (UTC)temp
F
wind
direction
speed
MPH
gust
MPH
rain 1hr
in
rain 24hr
in
rain mn
in
humidity
%
barometer
mb
20221204181527 41 220 4.0 11.0 0.00 0.00 0.00 46 1023.3
20221204180025 39 236 4.0 10.0 0.00 0.00 0.00 48 1023.9
20221204174519 38 244 6.0 11.0 0.00 0.00 0.00 49 1024.3
20221204173020 38 225 6.0 13.0 0.00 0.00 0.00 50 1024.6
20221204171512 37 235 5.0 10.0 0.00 0.00 0.00 52 1024.9
20221204170008 36 235 8.0 14.0 0.00 0.00 0.00 53 1025.3
20221204164504 35 262 6.0 14.0 0.00 0.00 0.00 57 1025.7
20221204163102 34 238 7.0 11.0 0.00 0.00 0.00 60 1025.8
20221204161602 32 244 6.0 13.0 0.00 0.00 0.00 65 1026.1
20221204160059 31 239 6.0 14.0 0.00 0.00 0.00 66 1026.1
20221204154613 29 219 7.0 10.0 0.00 0.00 0.00 68 1026.1
20221204153042 27 212 5.0 9.0 0.00 0.00 0.00 71 1026.4
20221204151542 25 238 4.0 9.0 0.00 0.00 0.00 73 1026.7
20221204150033 24 225 4.0 11.0 0.00 0.00 0.00 75 1026.3
20221204144532 22 200 6.0 12.0 0.00 0.00 0.00 76 1026.2
20221204143041 21 188 4.0 9.0 0.00 0.00 0.00 78 1026.7
20221204141524 19 182 3.0 5.0 0.00 0.00 0.00 80 1027.1
20221204140022 19 184 3.0 6.0 0.00 0.00 0.00 79 1027.1
20221204134520 19 185 4.0 8.0 0.00 0.00 0.00 80 1027.3
20221204133018 18 186 4.0 9.0 0.00 0.00 0.00 82 1027.1
20221204131514 16 194 3.0 5.0 0.00 0.00 0.00 80 1027.4
20221204130012 19 194 1.0 5.0 0.00 0.00 0.00 78 1027.6
20221204124510 19 195 3.0 7.0 0.00 0.00 0.00 79 1027.4
20221204123008 19 192 2.0 4.0 0.00 0.00 0.00 78 1027.6
20221204121517 19 192 2.0 4.0 0.00 0.00 0.00 77 1027.6
20221204120004 20 192 2.0 6.0 0.00 0.00 0.00 76 1027.9
20221204114504 20 192 3.0 5.0 0.00 0.00 0.00 75 1027.9
20221204113002 21 194 3.0 8.0 0.00 0.00 0.00 75 1028.0
20221204111605 21 194 3.0 7.0 0.00 0.00 0.00 74 1028.2
20221204110100 21 194 4.0 7.0 0.00 0.00 0.00 75 1028.3
20221204104600 21 194 2.0 5.0 0.00 0.00 0.00 74 1028.3
20221204103106 21 192 3.0 9.0 0.00 0.00 0.00 74 1028.6
20221204101558 21 190 5.0 9.0 0.00 0.00 0.00 75 1028.2
20221204100057 20 175 5.0 8.0 0.00 0.00 0.00 76 1028.3
20221204094553 20 174 2.0 5.0 0.00 0.00 0.00 75 1028.9
20221204093103 21 174 1.0 5.0 0.00 0.00 0.00 73 1029.2
20221204091550 21 174 3.0 6.0 0.00 0.00 0.00 74 1029.1
20221204090049 21 174 3.0 6.0 0.00 0.00 0.00 74 1028.8
20221204084548 20 175 2.0 6.0 0.00 0.00 0.00 74 1029.1
20221204083045 20 175 3.0 5.0 0.00 0.00 0.00 73 1029.0
20221204081541 22 175 4.0 10.0 0.00 0.00 0.00 71 1029.1
20221204080043 22 186 3.0 9.0 0.00 0.00 0.00 71 1029.1
20221204074536 22 188 3.0 6.0 0.00 0.00 0.00 70 1029.4
20221204073038 22 189 2.0 5.0 0.00 0.00 0.00 71 1029.5
20221204071533 22 192 3.0 7.0 0.00 0.00 0.00 70 1029.5
20221204070033 22 190 3.0 8.0 0.00 0.00 0.00 69 1029.9
20221204064529 22 192 4.0 8.0 0.00 0.00 0.00 69 1030.1
20221204063029 23 197 4.0 7.0 0.00 0.00 0.00 68 1030.4
20221204061523 23 198 4.0 8.0 0.00 0.00 0.00 68 1030.7
20221204060023 22 196 3.0 7.0 0.00 0.00 0.00 68 1031.0
20221204054520 22 190 3.0 6.0 0.00 0.00 0.00 68 1031.0
20221204053021 22 196 3.0 7.0 0.00 0.00 0.00 67 1031.1
20221204051510 23 192 3.0 7.0 0.00 0.00 0.00 67 1031.5
20221204050002 23 194 3.0 8.0 0.00 0.00 0.00 67 1031.4
20221204044607 23 194 3.0 7.0 0.00 0.00 0.00 66 1031.5
20221204043053 23 192 4.0 7.0 0.00 0.00 0.00 65 1031.6
20221204041549 24 197 4.0 10.0 0.00 0.00 0.00 64 1031.8
20221204040046 24 197 4.0 9.0 0.00 0.00 0.00 64 1031.7
20221204034543 24 188 5.0 10.0 0.00 0.00 0.00 64 1031.8
20221204033038 23 183 4.0 7.0 0.00 0.00 0.00 65 1032.2
20221204031531 23 184 4.0 8.0 0.00 0.00 0.00 65 1032.4
20221204030033 23 174 3.0 6.0 0.00 0.00 0.00 65 1032.8
20221204024525 23 173 4.0 8.0 0.00 0.00 0.00 65 1032.5
20221204023018 23 174 4.0 7.0 0.00 0.00 0.00 65 1032.6
20221204021514 22 187 4.0 8.0 0.00 0.00 0.00 66 1032.6
20221204020009 22 197 4.0 6.0 0.00 0.00 0.00 66 1032.6
20221204014518 21 202 4.0 6.0 0.00 0.00 0.00 66 1032.8
20221204013107 20 216 3.0 6.0 0.00 0.00 0.00 66 1033.3
20221204011559 20 219 3.0 5.0 0.00 0.00 0.00 65 1033.6
20221204010051 21 219 2.0 3.0 0.00 0.00 0.00 63 1033.7
20221204004557 22 219 2.0 3.0 0.00 0.00 0.00 60 1033.8
20221204003042 23 219 1.0 4.0 0.00 0.00 0.00 59 1034.4
20221204001537 23 219 3.0 4.0 0.00 0.00 0.00 58 1034.4
20221204000038 23 219 2.0 5.0 0.00 0.00 0.00 59 1034.4
20221203234534 24 220 2.0 4.0 0.00 0.00 0.00 59 1034.4
20221203233023 24 220 3.0 7.0 0.00 0.00 0.00 58 1034.4
20221203231519 24 221 2.0 5.0 0.00 0.00 0.00 56 1034.4
20221203230015 24 221 3.0 5.0 0.00 0.00 0.00 56 1034.4
20221203224511 25 221 3.0 7.0 0.00 0.00 0.00 55 1034.4
20221203223006 25 218 3.0 6.0 0.00 0.00 0.00 54 1034.4
20221203221502 25 219 4.0 8.0 0.00 0.00 0.00 53 1034.4
20221203220104 26 201 4.0 7.0 0.00 0.00 0.00 52 1034.8
20221203214553 26 219 4.0 10.0 0.00 0.00 0.00 51 1034.5
20221203213049 27 219 5.0 9.0 0.00 0.00 0.00 49 1034.5
20221203211543 27 211 6.0 10.0 0.00 0.00 0.00 48 1034.4
20221203210043 27 228 6.0 11.0 0.00 0.00 0.00 47 1034.4
20221203204540 27 224 4.0 7.0 0.00 0.00 0.00 48 1034.5
20221203203030 27 227 5.0 9.0 0.00 0.00 0.00 48 1034.5
20221203201526 28 234 4.0 9.0 0.00 0.00 0.00 47 1034.5
20221203200022 27 258 3.0 7.0 0.00 0.00 0.00 47 1034.6
20221203194517 28 237 4.0 8.0 0.00 0.00 0.00 47 1034.6
20221203193012 27 257 3.0 7.0 0.00 0.00 0.00 47 1034.5
20221203191507 26 261 4.0 7.0 0.00 0.00 0.00 50 1035.2
20221203190004 26 267 4.0 7.0 0.00 0.00 0.00 50 1035.7
20221203184605 25 300 4.0 8.0 0.00 0.00 0.00 52 1035.8
20221203183059 24 228 4.0 9.0 0.00 0.00 0.00 53 1036.2